createdAt,value
2018-03-20T00:00:45.567Z,83.89
2018-03-20T00:03:13.097Z,84.59
2018-03-20T00:05:40.620Z,83.90
2018-03-20T00:08:08.142Z,84.50
2018-03-20T00:10:35.688Z,84.77
2018-03-20T00:13:03.248Z,84.99
2018-03-20T00:15:30.749Z,84.87
2018-03-20T00:17:59.155Z,84.77
2018-03-20T00:20:26.682Z,84.61
2018-03-20T00:22:54.402Z,84.90
2018-03-20T00:25:22.814Z,85.09
2018-03-20T00:27:50.411Z,84.67
2018-03-20T00:30:18.115Z,84.84
2018-03-20T00:32:45.608Z,85.01
2018-03-20T00:35:13.223Z,84.51
2018-03-20T00:37:40.757Z,84.62
2018-03-20T00:40:08.320Z,85.06
2018-03-20T00:42:35.868Z,85.14
2018-03-20T00:45:03.418Z,84.85
2018-03-20T00:47:30.929Z,84.90
2018-03-20T00:49:58.417Z,85.15
2018-03-20T00:52:25.999Z,84.94
2018-03-20T00:54:53.552Z,84.68
2018-03-20T00:57:21.060Z,83.96
2018-03-20T00:59:48.570Z,84.32
2018-03-20T01:02:16.076Z,84.66
2018-03-20T01:04:43.614Z,84.27
2018-03-20T01:07:11.152Z,84.33
2018-03-20T01:09:38.732Z,85.42
2018-03-20T01:12:06.304Z,84.82
2018-03-20T01:14:33.809Z,85.22
2018-03-20T01:17:01.351Z,85.36
2018-03-20T01:19:28.909Z,84.44
2018-03-20T01:21:56.465Z,84.77
2018-03-20T01:24:23.994Z,83.29
2018-03-20T01:26:51.588Z,82.95
2018-03-20T01:29:19.108Z,82.42
2018-03-20T01:31:46.637Z,82.29
2018-03-20T01:34:14.172Z,82.58
2018-03-20T01:36:41.730Z,83.07
2018-03-20T01:39:09.285Z,84.61
2018-03-20T01:41:36.789Z,83.65
2018-03-20T01:44:04.407Z,84.32
2018-03-20T01:46:31.952Z,84.95
2018-03-20T01:48:59.460Z,84.65
2018-03-20T01:51:26.949Z,84.46
2018-03-20T01:53:54.497Z,83.48
2018-03-20T01:56:22.025Z,82.86
2018-03-20T01:58:49.558Z,83.62
2018-03-20T02:01:17.065Z,83.37
2018-03-20T02:03:44.591Z,84.28
2018-03-20T02:06:12.121Z,82.75
2018-03-20T02:08:39.650Z,81.27
2018-03-20T02:11:07.169Z,81.99
2018-03-20T02:13:34.708Z,81.71
2018-03-20T02:16:02.223Z,81.24
2018-03-20T02:18:29.729Z,81.35
2018-03-20T02:20:57.244Z,80.81
2018-03-20T02:23:24.784Z,80.54
2018-03-20T02:25:52.350Z,79.80
2018-03-20T02:28:19.914Z,79.49
2018-03-20T02:30:47.452Z,80.34
2018-03-20T02:33:14.972Z,78.83
2018-03-20T02:35:42.496Z,78.27
2018-03-20T02:38:10.051Z,78.49
2018-03-20T02:40:37.571Z,77.20
2018-03-20T02:43:05.082Z,77.32
2018-03-20T02:45:32.569Z,78.24
2018-03-20T02:48:00.193Z,77.44
2018-03-20T02:50:28.166Z,77.42
2018-03-20T02:52:55.742Z,76.32
2018-03-20T02:55:23.346Z,76.38
2018-03-20T02:57:50.873Z,76.76
2018-03-20T03:00:18.391Z,76.33
2018-03-20T03:02:45.910Z,77.07
2018-03-20T03:05:13.458Z,76.62
2018-03-20T03:07:40.963Z,76.93
2018-03-20T03:10:08.491Z,78.51
2018-03-20T03:12:35.996Z,77.18
2018-03-20T03:15:03.570Z,77.61
2018-03-20T03:17:31.102Z,76.54
2018-03-20T03:19:58.632Z,75.74
2018-03-20T03:22:26.148Z,75.03
2018-03-20T03:24:53.653Z,75.95
2018-03-20T03:27:21.205Z,75.56
2018-03-20T03:29:48.771Z,75.85
2018-03-20T03:32:16.285Z,76.02
2018-03-20T03:34:43.841Z,76.25
2018-03-20T03:37:11.336Z,77.26
2018-03-20T03:39:38.881Z,78.45
2018-03-20T03:42:06.391Z,79.92
2018-03-20T03:44:33.888Z,81.14
2018-03-20T03:47:01.452Z,82.85
2018-03-20T03:49:28.944Z,84.07
2018-03-20T03:51:56.468Z,86.12
2018-03-20T03:54:24.008Z,87.74
2018-03-20T03:56:51.509Z,89.27
2018-03-20T03:59:19.004Z,90.52
2018-03-20T04:01:46.527Z,91.24
2018-03-20T04:04:14.043Z,92.03
2018-03-20T04:06:41.543Z,92.98
2018-03-20T04:09:09.119Z,93.88
2018-03-20T04:11:36.631Z,94.84
2018-03-20T04:14:04.156Z,96.57
2018-03-20T04:16:31.695Z,97.04
2018-03-20T04:18:59.224Z,97.90
2018-03-20T04:21:26.775Z,98.16
2018-03-20T04:23:54.287Z,98.22
2018-03-20T04:26:21.811Z,97.88
2018-03-20T04:28:49.364Z,98.47
2018-03-20T04:31:16.905Z,98.85
2018-03-20T04:33:44.444Z,98.91
2018-03-20T04:36:11.937Z,99.34
2018-03-20T04:38:39.492Z,99.69
2018-03-20T04:41:07.016Z,99.56
2018-03-20T04:43:34.517Z,99.49
2018-03-20T04:46:02.019Z,99.75
2018-03-20T04:48:29.590Z,100.00
2018-03-20T04:50:57.088Z,100.00
2018-03-20T04:53:24.614Z,100.00
2018-03-20T04:55:52.142Z,100.00
2018-03-20T04:58:19.691Z,100.00
2018-03-20T05:00:47.200Z,100.00
2018-03-20T05:03:14.737Z,100.00
2018-03-20T05:05:42.260Z,100.00
2018-03-20T05:08:09.803Z,100.00
2018-03-20T05:10:37.316Z,100.00
2018-03-20T05:13:05.687Z,100.00
2018-03-20T05:15:33.249Z,100.00
2018-03-20T05:18:00.772Z,100.00
2018-03-20T05:20:33.931Z,100.00
2018-03-20T05:23:06.988Z,100.00
2018-03-20T05:25:34.546Z,100.00
2018-03-20T05:28:02.071Z,100.00
2018-03-20T05:30:29.657Z,100.00
2018-03-20T05:32:57.225Z,100.00
2018-03-20T05:35:24.805Z,100.00
2018-03-20T05:37:52.381Z,100.00
2018-03-20T05:40:19.896Z,100.00
2018-03-20T05:42:47.453Z,100.00
2018-03-20T05:45:14.964Z,100.00
2018-03-20T05:47:42.506Z,100.00
2018-03-20T05:53:19.877Z,100.00
2018-03-20T05:55:47.388Z,100.00
2018-03-20T05:58:14.920Z,100.00
2018-03-20T06:00:42.500Z,100.00
2018-03-20T06:03:10.061Z,100.00
2018-03-20T06:05:37.611Z,100.00
2018-03-20T06:08:05.171Z,100.00
2018-03-20T06:10:32.735Z,100.00
2018-03-20T06:13:01.149Z,100.00
2018-03-20T06:15:28.731Z,100.00
2018-03-20T06:17:56.295Z,100.00
2018-03-20T06:20:24.343Z,100.00
2018-03-20T06:22:51.865Z,100.00
2018-03-20T06:25:19.631Z,100.00
2018-03-20T06:27:47.184Z,100.00
2018-03-20T06:30:14.723Z,100.00
2018-03-20T06:32:42.242Z,100.00
2018-03-20T06:35:09.768Z,100.00
2018-03-20T06:37:37.297Z,100.00
2018-03-20T06:40:04.863Z,100.00
2018-03-20T06:42:32.516Z,100.00
2018-03-20T06:45:00.067Z,100.00
2018-03-20T06:47:27.578Z,100.00
2018-03-20T06:49:55.139Z,100.00
2018-03-20T06:52:22.658Z,100.00
2018-03-20T06:54:50.169Z,100.00
2018-03-20T06:57:17.703Z,100.00
2018-03-20T06:59:45.221Z,100.00
2018-03-20T07:02:12.729Z,100.00
2018-03-20T07:04:40.250Z,100.00
2018-03-20T07:07:07.763Z,100.00
2018-03-20T07:09:35.288Z,100.00
2018-03-20T07:12:02.808Z,100.00
2018-03-20T07:14:30.335Z,100.00
2018-03-20T07:16:57.849Z,100.00
2018-03-20T07:19:25.369Z,100.00
2018-03-20T07:21:52.905Z,100.00
2018-03-20T07:24:20.439Z,100.00
2018-03-20T07:26:48.052Z,100.00
2018-03-20T07:29:15.631Z,100.00
2018-03-20T07:31:43.178Z,100.00
2018-03-20T07:34:10.771Z,100.00
2018-03-20T07:36:38.366Z,100.00
2018-03-20T07:39:05.923Z,100.00
2018-03-20T07:41:33.534Z,100.00
2018-03-20T07:44:01.064Z,100.00
2018-03-20T07:46:28.637Z,100.00
2018-03-20T07:48:56.194Z,100.00
2018-03-20T07:51:23.764Z,100.00
2018-03-20T07:53:51.306Z,100.00
2018-03-20T07:56:18.839Z,100.00
2018-03-20T07:58:46.395Z,100.00
2018-03-20T08:01:13.952Z,100.00
2018-03-20T08:03:41.488Z,100.00
2018-03-20T08:06:09.012Z,100.00
2018-03-20T08:08:36.517Z,100.00
2018-03-20T08:11:04.041Z,100.00
2018-03-20T08:13:31.565Z,100.00
2018-03-20T08:15:59.130Z,100.00
2018-03-20T08:18:26.705Z,100.00
2018-03-20T08:20:54.212Z,100.00
2018-03-20T08:23:21.730Z,100.00
2018-03-20T08:25:49.262Z,100.00
2018-03-20T08:28:16.831Z,100.00
2018-03-20T08:30:44.347Z,100.00
2018-03-20T08:33:11.869Z,100.00
2018-03-20T08:35:39.399Z,100.00
2018-03-20T08:38:06.958Z,100.00
2018-03-20T08:40:34.496Z,100.00
2018-03-20T08:43:02.017Z,100.00
2018-03-20T08:45:29.541Z,100.00
2018-03-20T08:47:57.068Z,100.00
2018-03-20T08:50:24.582Z,100.00
2018-03-20T08:52:52.104Z,100.00
2018-03-20T08:55:19.629Z,100.00
2018-03-20T08:57:47.140Z,100.00
2018-03-20T09:00:14.637Z,100.00
2018-03-20T09:02:42.158Z,100.00
2018-03-20T09:05:09.693Z,100.00
2018-03-20T09:07:37.192Z,99.51
2018-03-20T09:10:04.686Z,99.59
2018-03-20T09:12:32.250Z,99.78
2018-03-20T09:14:59.769Z,99.69
2018-03-20T09:17:27.282Z,99.43
2018-03-20T09:19:54.790Z,99.42
2018-03-20T09:22:22.327Z,99.47
2018-03-20T09:24:49.851Z,99.56
2018-03-20T09:27:17.354Z,100.00
2018-03-20T09:29:44.858Z,100.00
2018-03-20T09:32:12.396Z,100.00
2018-03-20T09:34:39.901Z,100.00
2018-03-20T09:37:07.415Z,99.76
2018-03-20T09:39:34.924Z,99.41
2018-03-20T09:42:02.459Z,99.32
2018-03-20T09:44:29.981Z,99.50
2018-03-20T09:46:57.492Z,99.11
2018-03-20T09:49:25.037Z,98.97
2018-03-20T09:51:52.528Z,99.06
2018-03-20T09:54:20.048Z,98.77
2018-03-20T09:56:47.560Z,99.18
2018-03-20T09:59:15.084Z,98.67
2018-03-20T10:01:42.585Z,97.92
2018-03-20T10:04:10.096Z,97.63
2018-03-20T10:06:37.640Z,96.93
2018-03-20T10:09:05.161Z,96.71
2018-03-20T10:11:32.677Z,96.52
2018-03-20T10:14:00.209Z,96.02
2018-03-20T10:16:27.738Z,95.55
2018-03-20T10:18:55.249Z,94.80
2018-03-20T10:21:22.756Z,94.78
2018-03-20T10:23:50.269Z,94.58
2018-03-20T10:26:17.831Z,93.35
2018-03-20T10:28:45.307Z,92.89
2018-03-20T10:31:12.835Z,93.27
2018-03-20T10:33:40.335Z,92.71
2018-03-20T10:36:08.292Z,91.62
2018-03-20T10:38:35.808Z,91.97
2018-03-20T10:41:03.319Z,90.99
2018-03-20T10:43:31.058Z,90.16
2018-03-20T10:45:58.552Z,90.22
2018-03-20T10:48:26.053Z,89.27
2018-03-20T10:50:53.550Z,89.66
2018-03-20T10:53:21.076Z,89.84
2018-03-20T10:55:48.621Z,88.64
2018-03-20T10:58:16.112Z,87.50
2018-03-20T11:00:48.416Z,87.90
2018-03-20T11:03:15.981Z,87.07
2018-03-20T11:05:43.489Z,86.80
2018-03-20T11:08:11.055Z,85.96
2018-03-20T11:10:38.594Z,84.64
2018-03-20T11:13:06.273Z,84.06
2018-03-20T11:15:33.785Z,84.56
2018-03-20T11:18:01.285Z,82.85
2018-03-20T11:20:28.794Z,82.57
2018-03-20T11:22:56.359Z,82.18
2018-03-20T11:25:23.877Z,81.01
2018-03-20T11:27:51.415Z,80.26
2018-03-20T11:30:18.979Z,80.83
2018-03-20T11:32:46.524Z,78.04
2018-03-20T11:35:14.024Z,78.02
2018-03-20T11:37:41.551Z,78.06
2018-03-20T11:40:09.124Z,78.30
2018-03-20T11:42:36.645Z,78.94
2018-03-20T11:45:04.137Z,78.23
2018-03-20T11:47:31.694Z,77.89
2018-03-20T11:49:59.198Z,77.47
2018-03-20T11:52:26.707Z,75.29
2018-03-20T11:54:54.236Z,76.17
2018-03-20T11:57:21.707Z,76.12
2018-03-20T11:59:49.232Z,73.86
2018-03-20T12:02:17.214Z,74.04
2018-03-20T12:04:44.757Z,74.99
2018-03-20T12:07:12.276Z,73.77
2018-03-20T12:09:46.344Z,70.15
2018-03-20T12:12:13.876Z,65.61
2018-03-20T12:14:41.389Z,65.22
2018-03-20T12:17:08.921Z,65.51
2018-03-20T12:19:36.475Z,63.70
2018-03-20T12:22:03.949Z,64.22
2018-03-20T12:24:31.468Z,65.48
2018-03-20T12:26:58.976Z,63.80
2018-03-20T12:29:26.489Z,62.26
2018-03-20T12:31:54.011Z,62.25
2018-03-20T12:34:22.249Z,63.57
2018-03-20T12:36:49.775Z,64.62
2018-03-20T12:39:17.304Z,62.83
2018-03-20T12:41:44.817Z,61.89
2018-03-20T12:44:12.349Z,60.56
2018-03-20T12:46:40.643Z,60.65
2018-03-20T12:49:08.146Z,59.88
2018-03-20T12:51:35.666Z,58.22
2018-03-20T12:54:03.141Z,57.21
2018-03-20T12:56:30.661Z,57.01
2018-03-20T12:58:58.148Z,56.31
2018-03-20T13:01:25.664Z,56.39
2018-03-20T13:03:53.246Z,58.48
2018-03-20T13:06:20.759Z,59.58
2018-03-20T13:08:48.331Z,60.05
2018-03-20T13:11:15.865Z,60.11
2018-03-20T13:13:43.435Z,59.68
2018-03-20T13:16:10.919Z,56.54
2018-03-20T13:18:38.517Z,57.54
2018-03-20T13:21:06.017Z,57.23
2018-03-20T13:23:33.542Z,57.68
2018-03-20T13:26:01.103Z,57.70
2018-03-20T13:28:28.648Z,58.28
2018-03-20T13:30:56.169Z,58.55
2018-03-20T13:33:23.683Z,58.30
2018-03-20T13:35:51.543Z,57.34
2018-03-20T13:38:19.115Z,56.99
2018-03-20T13:40:46.657Z,56.57
2018-03-20T13:43:14.185Z,55.96
2018-03-20T13:45:41.690Z,56.01
2018-03-20T13:48:09.225Z,56.13
2018-03-20T13:50:36.740Z,55.21
2018-03-20T13:53:05.168Z,55.60
2018-03-20T13:55:32.678Z,54.46
2018-03-20T13:58:00.204Z,54.42
2018-03-20T14:00:28.627Z,53.68
2018-03-20T14:02:56.156Z,54.58
2018-03-20T14:05:24.392Z,54.78
2018-03-20T14:07:51.891Z,54.98
2018-03-20T14:10:19.425Z,55.42
2018-03-20T14:12:46.959Z,54.88
2018-03-20T14:15:14.456Z,54.80
2018-03-20T14:17:41.974Z,54.17
2018-03-20T14:20:09.480Z,52.76
2018-03-20T14:22:36.988Z,53.28
2018-03-20T14:25:04.499Z,53.12
2018-03-20T14:27:31.980Z,52.84
2018-03-20T14:29:59.527Z,52.64
2018-03-20T14:32:27.048Z,52.95
2018-03-20T14:34:54.601Z,53.19
2018-03-20T14:37:22.120Z,52.76
2018-03-20T14:39:49.659Z,53.14
2018-03-20T14:42:17.165Z,51.89
2018-03-20T14:44:44.679Z,51.92
2018-03-20T14:47:12.183Z,51.99
2018-03-20T14:49:39.689Z,52.80
2018-03-20T14:52:07.189Z,52.32
2018-03-20T14:54:34.708Z,52.60
2018-03-20T14:57:02.231Z,51.07
2018-03-20T14:59:29.725Z,51.51
2018-03-20T15:01:57.230Z,52.24
2018-03-20T15:04:24.737Z,51.27
2018-03-20T15:06:52.263Z,50.32
2018-03-20T15:09:19.852Z,51.79
2018-03-20T15:11:47.337Z,51.85
2018-03-20T15:14:14.824Z,52.35
2018-03-20T15:16:42.401Z,51.82
2018-03-20T15:19:09.908Z,52.87
2018-03-20T15:21:37.562Z,52.93
2018-03-20T15:24:05.088Z,53.46
2018-03-20T15:26:32.585Z,52.92
2018-03-20T15:29:00.080Z,53.04
2018-03-20T15:31:27.557Z,52.34
2018-03-20T15:33:55.061Z,51.19
2018-03-20T15:36:22.583Z,50.95
2018-03-20T15:38:50.098Z,50.22
2018-03-20T15:41:17.598Z,50.67
2018-03-20T15:43:45.196Z,50.87
2018-03-20T15:46:12.677Z,51.05
2018-03-20T15:48:40.179Z,51.94
2018-03-20T15:51:07.706Z,51.30
2018-03-20T15:53:35.203Z,51.08
2018-03-20T15:58:37.085Z,51.29
2018-03-20T16:01:04.594Z,51.92
2018-03-20T16:03:32.165Z,51.13
2018-03-20T16:06:00.359Z,50.20
2018-03-20T16:08:27.892Z,50.60
2018-03-20T16:10:55.394Z,50.53
2018-03-20T16:13:22.916Z,49.82
2018-03-20T16:15:50.518Z,50.26
2018-03-20T16:18:18.386Z,50.59
2018-03-20T16:20:45.965Z,50.36
2018-03-20T16:23:13.491Z,50.23
2018-03-20T16:25:41.034Z,50.58
2018-03-20T16:28:08.571Z,50.65
2018-03-20T16:30:36.118Z,50.95
2018-03-20T16:33:03.631Z,51.29
2018-03-20T16:35:31.142Z,51.21
2018-03-20T16:37:58.652Z,52.05
2018-03-20T16:40:26.187Z,52.04
2018-03-20T16:42:53.679Z,52.62
2018-03-20T16:45:21.232Z,51.96
2018-03-20T16:47:52.319Z,51.60
2018-03-20T16:50:19.817Z,51.63
2018-03-20T16:52:47.324Z,51.59
2018-03-20T16:55:14.811Z,51.67
2018-03-20T16:57:42.717Z,51.98
2018-03-20T17:00:10.268Z,52.85
2018-03-20T17:02:37.833Z,53.21
2018-03-20T17:05:05.926Z,53.51
2018-03-20T17:07:33.701Z,53.88
2018-03-20T17:10:01.202Z,54.12
2018-03-20T17:12:28.742Z,54.64
2018-03-20T17:14:56.280Z,54.84
2018-03-20T17:17:23.844Z,55.16
2018-03-20T17:19:51.397Z,55.79
2018-03-20T17:22:18.996Z,55.91
2018-03-20T17:24:48.239Z,56.30
2018-03-20T17:27:15.965Z,56.26
2018-03-20T17:29:43.492Z,56.84
2018-03-20T17:32:11.002Z,57.12
2018-03-20T17:34:38.622Z,57.20
2018-03-20T17:37:06.154Z,57.91
2018-03-20T17:39:33.873Z,58.22
2018-03-20T17:42:01.392Z,58.53
2018-03-20T17:44:28.950Z,58.84
2018-03-20T17:49:49.783Z,59.42
2018-03-20T17:52:17.324Z,59.48
2018-03-20T17:54:44.865Z,59.90
2018-03-20T17:57:12.367Z,60.23
2018-03-20T17:59:40.509Z,60.10
2018-03-20T18:02:09.326Z,60.66
2018-03-20T18:04:37.600Z,61.07
2018-03-20T18:07:05.164Z,61.29
2018-03-20T18:09:32.706Z,61.10
2018-03-20T18:12:01.213Z,61.33
2018-03-20T18:14:28.764Z,61.49
2018-03-20T18:16:56.369Z,61.82
2018-03-20T18:19:23.871Z,62.12
2018-03-20T18:21:51.732Z,62.44
2018-03-20T18:24:19.279Z,62.52
2018-03-20T18:26:46.826Z,61.69
2018-03-20T18:29:14.400Z,62.27
2018-03-20T18:31:41.988Z,61.85
2018-03-20T18:34:11.507Z,61.63
2018-03-20T18:36:39.016Z,61.62
2018-03-20T18:39:06.574Z,62.24
2018-03-20T18:41:35.279Z,62.15
2018-03-20T18:44:02.822Z,62.00
2018-03-20T18:46:30.377Z,62.53
2018-03-20T18:48:57.904Z,62.51
2018-03-20T18:51:25.435Z,62.64
2018-03-20T18:53:52.981Z,62.63
2018-03-20T18:56:22.154Z,62.55
2018-03-20T18:58:49.762Z,62.78
2018-03-20T19:01:17.284Z,63.29
2018-03-20T19:03:44.789Z,63.30
2018-03-20T19:06:12.297Z,63.51
2018-03-20T19:08:40.095Z,63.62
2018-03-20T19:11:07.619Z,63.87
2018-03-20T19:13:35.118Z,64.19
2018-03-20T19:16:02.726Z,64.44
2018-03-20T19:18:30.221Z,64.66
2018-03-20T19:20:57.781Z,64.81
2018-03-20T19:23:25.926Z,64.97
2018-03-20T19:25:53.524Z,65.81
2018-03-20T19:28:21.451Z,66.12
2018-03-20T19:30:50.366Z,65.65
2018-03-20T19:33:18.032Z,65.77
2018-03-20T19:35:46.606Z,66.07
2018-03-20T19:38:14.181Z,66.01
2018-03-20T19:40:41.725Z,66.33
2018-03-20T19:43:09.217Z,66.58
2018-03-20T19:45:36.711Z,66.61
2018-03-20T19:48:04.201Z,66.81
2018-03-20T19:50:33.035Z,66.94
2018-03-20T19:53:00.564Z,66.77
2018-03-20T19:55:28.216Z,66.99
2018-03-20T19:57:55.714Z,66.91
2018-03-20T20:00:23.241Z,66.70
2018-03-20T20:02:50.917Z,67.19
2018-03-20T20:05:19.090Z,67.58
2018-03-20T20:07:46.945Z,67.59
2018-03-20T20:23:09.640Z,68.87
2018-03-20T20:25:37.888Z,69.24
2018-03-20T20:28:05.593Z,69.42
2018-03-20T20:30:33.355Z,69.42
2018-03-20T20:33:00.934Z,70.30
2018-03-20T20:35:28.556Z,70.07
2018-03-20T20:37:56.156Z,70.76
2018-03-20T20:40:23.779Z,70.18
2018-03-20T20:42:52.342Z,70.50
2018-03-20T20:45:20.925Z,70.98
2018-03-20T20:47:48.637Z,71.14
2018-03-20T20:50:18.296Z,71.43
2018-03-20T20:52:45.904Z,71.66
2018-03-20T20:55:13.759Z,72.57
2018-03-20T20:57:41.585Z,72.54
2018-03-20T21:00:09.108Z,73.43
2018-03-20T21:02:37.213Z,73.71
2018-03-20T21:05:04.772Z,73.82
2018-03-20T21:07:32.375Z,74.04
2018-03-20T21:09:59.915Z,74.70
2018-03-20T21:12:27.466Z,74.94
2018-03-20T21:14:55.070Z,75.42
2018-03-20T21:17:22.611Z,76.33
2018-03-20T21:20:24.908Z,76.47
2018-03-20T21:22:54.350Z,77.02
2018-03-20T21:25:21.932Z,76.90
2018-03-20T21:27:49.626Z,76.88
2018-03-20T21:30:17.177Z,77.67
2018-03-20T21:32:44.732Z,78.00
2018-03-20T21:35:12.495Z,77.25
2018-03-20T21:50:35.127Z,79.79
2018-03-20T21:53:03.893Z,79.84
2018-03-20T21:55:32.145Z,80.03
2018-03-20T21:58:00.007Z,80.07
2018-03-20T22:00:34.632Z,81.05
2018-03-20T22:03:02.236Z,81.02
2018-03-20T22:05:29.857Z,81.51
2018-03-20T22:07:57.459Z,81.05
2018-03-20T22:10:25.067Z,81.18
2018-03-20T22:12:52.583Z,81.24
2018-03-20T22:15:20.163Z,81.19
2018-03-20T22:17:47.675Z,81.18
2018-03-20T22:20:15.212Z,81.12
2018-03-20T22:22:42.746Z,81.66
2018-03-20T22:25:10.295Z,81.75
2018-03-20T22:27:37.952Z,81.60
2018-03-20T22:30:05.548Z,82.07
2018-03-20T22:32:33.101Z,81.96
2018-03-20T22:35:00.655Z,82.72
2018-03-20T22:37:28.329Z,82.78
2018-03-20T22:39:55.880Z,83.09
2018-03-20T22:42:23.441Z,82.87
2018-03-20T22:44:51.087Z,82.33
2018-03-20T22:47:18.704Z,82.86
2018-03-20T22:49:46.249Z,82.62
2018-03-20T22:52:13.906Z,82.92
2018-03-20T22:54:41.407Z,83.20
2018-03-20T22:57:09.188Z,83.08
2018-03-20T22:59:36.848Z,83.18
2018-03-20T23:02:04.487Z,83.73
2018-03-20T23:04:32.040Z,83.64
2018-03-20T23:06:59.663Z,83.98
2018-03-20T23:09:27.261Z,84.27
2018-03-20T23:11:54.789Z,84.32
2018-03-20T23:14:22.358Z,84.25
2018-03-20T23:16:49.914Z,84.10
2018-03-20T23:19:18.085Z,84.02
2018-03-20T23:21:45.714Z,84.30
2018-03-20T23:24:13.237Z,84.38
2018-03-20T23:26:40.818Z,84.25
2018-03-20T23:29:08.528Z,84.58
2018-03-20T23:31:36.170Z,85.18
2018-03-20T23:34:03.726Z,85.82
2018-03-20T23:36:31.287Z,86.08
2018-03-20T23:38:59.069Z,86.41
2018-03-20T23:41:26.712Z,86.43
2018-03-20T23:43:54.989Z,86.55
2018-03-20T23:46:23.433Z,86.37
2018-03-20T23:48:51.499Z,86.22
2018-03-20T23:51:19.107Z,86.14
2018-03-20T23:53:46.785Z,86.49
2018-03-20T23:56:14.549Z,86.63
2018-03-20T23:58:42.335Z,86.92
